Impacts TAF Board INFO
FOR SITUATIONAL AWARENESS. NOT TO BE USED FOR FLIGHT PLANNING PURPOSES.
IDs:

KIAD - Washington/Dulles In, VA, US

Issued at 2342 UTC 17 Aug 2018
Updated at 0125 UTC 18 Aug 2018
Potential Impact None Slight Moderate High
Time0052Z 18/02Z 18/03Z 18/04Z 18/05Z 18/06Z 18/07Z 18/08Z 18/09Z 18/10Z 18/11Z 18/12Z 18/13Z 18/14Z>>
Type OBS PRVL PRVL PRVL PRVL PRVL PRVL PRVL PRVL PRVL PRVL PRVL PRVL PRVL
VIS 10 >6 >6 >6 >6 >6 >6 >6 >6 >6 >6 >6 >6 >6
CIG 200 200 200 200 200 200 200 200 200 200 200 200 200 120
Cover BKN BKN BKN BKN BKN BKN BKN BKN BKN BKN BKN BKN BKN BKN
FltCat VFR VFR VFR VFR VFR VFR VFR VFR VFR VFR VFR VFR VFR VFR
WX -- -- -- -- -- -- -- -- -- -- -- -- -- --
WDir 160 220 220 220 220 220 220 220 220 220 220 220 220 270
WSpd 3 4 4 4 4 4 4 4 4 4 4 4 4 9
WGst -- -- -- -- -- -- -- -- -- -- -- -- -- --

Raw TAF
KIAD 172342Z 1800/1906 20006KT 6SM -SHRA SCT070 OVC200
  FM180030 22004KT P6SM FEW025 SCT070 BKN200
  FM181400 27009KT P6SM SCT050 BKN120
  FM181800 26008KT P6SM -SHRA SCT050 OVC110
  FM190000 27004KT P6SM BKN040


Raw METAR
KIAD 180052Z 16003KT 10SM SCT100 BKN200 22/22 A2997 RMK AO2 RAE02 SLP144 P0000 T02170217
KIAD 172352Z 18007KT 9SM -RA FEW050 BKN100 OVC200 23/22 A2996 RMK AO2 LTG DSNT E TSE15 SLP141 TS MOV E P0004 60006 T02280217 10333 20228 58006
KIAD 172315Z 20007KT 7SM -RA FEW070 SCT100 OVC200 23/22 A2998 RMK AO2 TSE15 TS MOV E P0002 T02330217
KIAD 172252Z COR 25007KT 5SM -TSRA BR FEW070 FEW090 BKN110 23/21 A2998 RMK AO2 OCNL LTGCG N-E TS N-E MOV E SLP150 P0002 T02330211

METAR Board
Radar Display
Forecast Discussion

FOR SITUATIONAL AWARENESS. NOT TO BE USED FOR FLIGHT PLANNING PURPOSES.